Metar z pełnej godziny Komunikat METAR ze strony awiacja.imgw.pl Metar G00 EPPO METAR EPPO 231300Z 25009KT 9999 FEW033 SCT040CB 19/13 Q1010 R10/29//95 =